Time;durP1;ratioP1;P1;durP2;ratioP2;P2;SDS_P1;SDS_P2;PMS_P1;PMS_P2;Temp;Humidity;BMP_temperature;BMP_pressure;BME280_temperature;BME280_humidity;BME280_pressure;Samples;Min_cycle;Max_cycle;Signal;HPM_P1;HPM_P2
2023/04/10 00:00:05;;;;;;;1999.90;999.90;;;3.60;99.90;;;;;;5014520;28;20041;-79
2023/04/10 00:02:31;;;;;;;1999.90;999.90;;;3.60;99.90;;;;;;5016447;28;20132;-78
2023/04/10 00:04:57;;;;;;;1999.90;999.90;;;3.60;99.90;;;;;;5014487;28;20031;-79
2023/04/10 00:07:23;;;;;;;1999.90;999.90;;;3.50;99.90;;;;;;5014587;28;20506;-77
2023/04/10 00:09:49;;;;;;;1999.90;999.90;;;3.50;99.90;;;;;;5014159;28;20038;-80
2023/04/10 00:12:15;;;;;;;1999.90;999.90;;;3.40;99.90;;;;;;5014737;28;20072;-77
2023/04/10 00:14:40;;;;;;;1999.90;999.90;;;3.40;99.90;;;;;;5015411;28;20114;-77
2023/04/10 00:17:06;;;;;;;1999.90;999.90;;;3.40;99.90;;;;;;5017852;28;20057;-80
2023/04/10 00:19:32;;;;;;;1999.90;999.90;;;3.40;99.90;;;;;;5014946;28;20034;-79
2023/04/10 00:21:58;;;;;;;1999.90;999.90;;;3.40;99.90;;;;;;5015242;28;20143;-80
2023/04/10 00:24:23;;;;;;;1999.90;999.90;;;3.40;99.90;;;;;;5015148;28;20467;-77
2023/04/10 00:26:49;;;;;;;1999.90;999.90;;;3.40;99.90;;;;;;5014076;28;20049;-77
2023/04/10 00:29:15;;;;;;;1999.90;999.90;;;3.40;99.90;;;;;;5015642;28;20049;-77
2023/04/10 00:31:40;;;;;;;1999.90;999.90;;;3.40;99.90;;;;;;5015907;28;20031;-79
2023/04/10 00:34:07;;;;;;;1999.90;999.90;;;3.40;99.90;;;;;;5014132;28;20089;-79
2023/04/10 00:36:33;;;;;;;1999.90;999.90;;;3.30;99.90;;;;;;5015831;28;20042;-78
2023/04/10 00:38:59;;;;;;;1999.90;999.90;;;3.30;99.90;;;;;;5015920;28;20054;-79
2023/04/10 00:41:25;;;;;;;1999.90;999.90;;;3.20;99.90;;;;;;5015758;28;20045;-79
2023/04/10 00:43:55;;;;;;;1999.90;999.90;;;3.20;99.90;;;;;;5015467;28;20061;-77
2023/04/10 00:46:21;;;;;;;1999.90;999.90;;;3.10;99.90;;;;;;5015554;28;20054;-77
2023/04/10 00:48:47;;;;;;;1999.90;999.90;;;3.10;99.90;;;;;;5015493;28;20113;-79
2023/04/10 00:51:13;;;;;;;1999.90;999.90;;;3.20;99.90;;;;;;5013644;28;20094;-78
2023/04/10 00:53:38;;;;;;;1999.90;999.90;;;3.10;99.90;;;;;;5015221;28;20039;-79
2023/04/10 00:56:06;;;;;;;1999.90;999.90;;;3.00;99.90;;;;;;5013594;28;20604;-80
2023/04/10 00:58:31;;;;;;;1999.90;999.90;;;3.00;99.90;;;;;;5030204;28;20042;-80
2023/04/10 01:00:57;;;;;;;1999.90;999.90;;;3.10;99.90;;;;;;5024177;28;20046;-80
2023/04/10 01:03:23;;;;;;;1999.90;999.90;;;3.00;99.90;;;;;;5024146;28;20036;-80
2023/04/10 01:06:12;;;;;;;1999.90;999.90;;;3.00;99.90;;;;;;5022596;28;20077;-78
2023/04/10 01:09:05;;;;;;;1999.90;999.90;;;3.00;99.90;;;;;;5020226;28;20038;-77
2023/04/10 01:11:39;;;;;;;1999.90;999.90;;;2.90;99.90;;;;;;5013418;28;20042;-78
2023/04/10 01:14:33;;;;;;;1999.90;999.90;;;2.90;99.90;;;;;;5014522;28;20512;-78
2023/04/10 01:17:19;;;;;;;1999.90;999.90;;;2.90;99.90;;;;;;5014569;28;20045;-77
2023/04/10 01:20:09;;;;;;;1999.90;999.90;;;2.90;99.90;;;;;;5014844;28;20062;-78
2023/04/10 01:22:54;;;;;;;1999.90;999.90;;;2.80;99.90;;;;;;5014268;28;20779;-78
2023/04/10 01:25:37;;;;;;;1999.90;999.90;;;2.70;99.90;;;;;;5012902;28;20452;-78
2023/04/10 01:28:17;;;;;;;1999.90;999.90;;;2.60;99.90;;;;;;5014818;28;20030;-78
2023/04/10 01:30:47;;;;;;;1999.90;999.90;;;2.60;99.90;;;;;;5013561;28;20044;-78
2023/04/10 01:33:17;;;;;;;1999.90;999.90;;;2.50;99.90;;;;;;5020994;28;20050;-78
2023/04/10 01:35:51;;;;;;;1999.90;999.90;;;2.40;99.90;;;;;;5015152;28;20038;-80
2023/04/10 01:38:19;;;;;;;1999.90;999.90;;;2.50;99.90;;;;;;5016228;28;20452;-78
2023/04/10 01:40:50;;;;;;;1999.90;999.90;;;2.30;99.90;;;;;;5012686;28;20542;-78
2023/04/10 01:43:17;;;;;;;1999.90;999.90;;;2.30;99.90;;;;;;5014691;28;20042;-78
2023/04/10 01:45:45;;;;;;;1999.90;999.90;;;2.30;99.90;;;;;;5014239;28;20053;-78
2023/04/10 01:48:11;;;;;;;1999.90;999.90;;;2.20;99.90;;;;;;5012895;28;20030;-77
2023/04/10 01:50:37;;;;;;;1999.90;999.90;;;2.20;99.90;;;;;;5014224;28;20550;-76
2023/04/10 01:53:05;;;;;;;1999.90;999.90;;;2.10;99.90;;;;;;5012665;28;20482;-77
2023/04/10 01:55:32;;;;;;;1999.90;999.90;;;2.10;99.90;;;;;;5012643;28;20476;-76
2023/04/10 01:58:00;;;;;;;1999.90;999.90;;;2.00;99.90;;;;;;5014315;28;20046;-76
2023/04/10 02:00:26;;;;;;;1999.90;999.90;;;2.10;99.90;;;;;;5013364;28;20113;-79
2023/04/10 02:02:52;;;;;;;1999.90;999.90;;;2.10;99.90;;;;;;5023902;28;20470;-79
2023/04/10 02:05:18;;;;;;;1999.90;999.90;;;2.10;99.90;;;;;;5020569;28;20121;-79
2023/04/10 02:08:00;;;;;;;1999.90;999.90;;;2.00;99.90;;;;;;5014368;28;20042;-78
2023/04/10 02:10:43;;;;;;;1999.90;999.90;;;2.10;99.90;;;;;;5013869;28;20519;-77
2023/04/10 02:13:13;;;;;;;1999.90;999.90;;;2.10;99.90;;;;;;5014438;28;20562;-79
2023/04/10 02:15:45;;;;;;;1999.90;999.90;;;2.00;99.90;;;;;;5012330;28;20073;-78
2023/04/10 02:18:14;;;;;;;1999.90;999.90;;;2.00;99.90;;;;;;5012503;28;20389;-78
2023/04/10 02:20:40;;;;;;;1999.90;999.90;;;1.90;99.90;;;;;;5012566;28;20034;-78
2023/04/10 02:23:07;;;;;;;1999.90;999.90;;;2.00;99.90;;;;;;5016352;28;20050;-80
2023/04/10 02:25:33;;;;;;;1999.90;999.90;;;2.00;99.90;;;;;;5014434;28;20034;-78
2023/04/10 02:28:08;;;;;;;1999.90;999.90;;;2.00;99.90;;;;;;5014199;28;20069;-79
2023/04/10 02:30:34;;;;;;;1999.90;999.90;;;1.90;99.90;;;;;;5012203;28;20038;-78
2023/04/10 02:33:00;;;;;;;1999.90;999.90;;;1.90;99.90;;;;;;5014740;28;20062;-79
2023/04/10 02:35:27;;;;;;;1999.90;999.90;;;1.90;99.90;;;;;;5019333;28;20479;-77
2023/04/10 02:37:53;;;;;;;1999.90;999.90;;;1.80;99.90;;;;;;5017148;28;20022;-76
2023/04/10 02:40:18;;;;;;;1999.90;999.90;;;1.80;99.90;;;;;;5017057;28;20365;-76
2023/04/10 02:42:44;;;;;;;1999.90;999.90;;;1.80;99.90;;;;;;5015336;28;20042;-79
2023/04/10 02:45:09;;;;;;;1999.90;999.90;;;1.80;99.90;;;;;;5015259;28;20075;-77
2023/04/10 02:47:35;;;;;;;1999.90;999.90;;;1.80;99.90;;;;;;5017623;28;20035;-80
2023/04/10 02:50:01;;;;;;;1999.90;999.90;;;1.80;99.90;;;;;;5027000;28;20034;-80
2023/04/10 02:52:26;;;;;;;1999.90;999.90;;;1.80;99.90;;;;;;5023496;28;20061;-78
2023/04/10 02:54:52;;;;;;;1999.90;999.90;;;1.70;99.90;;;;;;5022535;28;21063;-79
2023/04/10 02:57:17;;;;;;;1999.90;999.90;;;1.70;99.90;;;;;;5023002;28;20041;-79
2023/04/10 02:59:43;;;;;;;1999.90;999.90;;;1.70;99.90;;;;;;5025462;28;20076;-78
2023/04/10 03:02:10;;;;;;;1999.90;999.90;;;1.70;99.90;;;;;;5024725;28;20046;-80
2023/04/10 03:04:35;;;;;;;1999.90;999.90;;;1.70;99.90;;;;;;5026034;28;20022;-77
2023/04/10 03:07:01;;;;;;;1999.90;999.90;;;1.60;99.90;;;;;;5015354;28;20030;-77
2023/04/10 03:09:27;;;;;;;1999.90;999.90;;;1.60;99.90;;;;;;5016664;28;20488;-77
2023/04/10 03:11:52;;;;;;;1999.90;999.90;;;1.70;99.90;;;;;;5016550;28;20452;-77
2023/04/10 03:14:18;;;;;;;1999.90;999.90;;;1.80;99.90;;;;;;5016449;28;20502;-77
2023/04/10 03:16:44;;;;;;;1999.90;999.90;;;1.80;99.90;;;;;;5016636;28;20172;-77
2023/04/10 03:19:11;;;;;;;1999.90;999.90;;;1.80;99.90;;;;;;5015213;28;20062;-77
2023/04/10 03:21:37;;;;;;;1999.90;999.90;;;1.80;99.90;;;;;;5014934;28;20030;-77
2023/04/10 03:24:05;;;;;;;1999.90;999.90;;;1.80;99.90;;;;;;5014821;28;20389;-77
2023/04/10 03:26:31;;;;;;;1999.90;999.90;;;1.90;99.90;;;;;;5015285;28;20034;-79
2023/04/10 03:28:57;;;;;;;1999.90;999.90;;;1.90;99.90;;;;;;5016789;28;20038;-79
2023/04/10 03:31:22;;;;;;;1999.90;999.90;;;2.20;99.90;;;;;;5027410;28;20450;-79
2023/04/10 03:33:48;;;;;;;1999.90;999.90;;;2.00;99.90;;;;;;5027974;28;20034;-79
2023/04/10 03:36:14;;;;;;;1999.90;999.90;;;1.90;99.90;;;;;;5020075;28;20510;-77
2023/04/10 03:38:40;;;;;;;1999.90;999.90;;;1.90;99.90;;;;;;5015741;28;20459;-78
2023/04/10 03:41:05;;;;;;;1999.90;999.90;;;1.90;99.90;;;;;;5017242;28;20047;-78
2023/04/10 03:43:31;;;;;;;1999.90;999.90;;;1.90;99.90;;;;;;5014964;28;20158;-78
2023/04/10 03:45:56;;;;;;;1999.90;999.90;;;2.00;99.90;;;;;;5017023;28;20477;-78
2023/04/10 03:48:22;;;;;;;1999.90;999.90;;;1.90;99.90;;;;;;5014408;28;20069;-76
2023/04/10 03:50:48;;;;;;;1999.90;999.90;;;1.80;99.90;;;;;;5016037;28;20042;-77
2023/04/10 03:53:16;;;;;;;1999.90;999.90;;;1.80;99.90;;;;;;5016319;28;20039;-77
2023/04/10 03:55:44;;;;;;;1999.90;999.90;;;1.80;99.90;;;;;;5014729;28;20038;-78
2023/04/10 03:58:11;;;;;;;1999.90;999.90;;;1.80;99.90;;;;;;5015723;28;20048;-79
2023/04/10 04:00:37;;;;;;;1999.90;999.90;;;1.80;99.90;;;;;;5015849;28;20039;-79
2023/04/10 04:03:03;;;;;;;1999.90;999.90;;;1.70;99.90;;;;;;5017134;28;20034;-76
2023/04/10 04:05:32;;;;;;;1999.90;999.90;;;1.80;99.90;;;;;;5018538;28;20101;-77
2023/04/10 04:07:58;;;;;;;1999.90;999.90;;;1.80;99.90;;;;;;5016276;28;20031;-77
2023/04/10 04:10:24;;;;;;;1999.90;999.90;;;1.70;99.90;;;;;;5024346;28;20476;-80
2023/04/10 04:12:49;;;;;;;1999.90;999.90;;;1.60;99.90;;;;;;5016847;28;20471;-77
2023/04/10 04:15:15;;;;;;;1999.90;999.90;;;1.70;99.90;;;;;;5015152;28;20138;-76
2023/04/10 04:17:41;;;;;;;1999.90;999.90;;;1.70;99.90;;;;;;5017399;28;20030;-78
2023/04/10 04:20:07;;;;;;;1999.90;999.90;;;1.70;99.90;;;;;;5018027;28;20420;-78
2023/04/10 04:22:33;;;;;;;1999.90;999.90;;;1.70;99.90;;;;;;5016204;28;20033;-79
2023/04/10 04:24:58;;;;;;;1999.90;999.90;;;1.70;99.90;;;;;;5017411;28;20044;-78
2023/04/10 04:27:24;;;;;;;1999.90;999.90;;;1.70;99.90;;;;;;5022381;28;20045;-78
2023/04/10 04:29:50;;;;;;;1999.90;999.90;;;1.80;99.90;;;;;;5016775;28;20039;-78
2023/04/10 04:32:15;;;;;;;1999.90;999.90;;;1.80;99.90;;;;;;5018558;28;20034;-78
2023/04/10 04:34:41;;;;;;;1999.90;999.90;;;1.90;99.90;;;;;;5017777;28;20043;-80
2023/04/10 04:37:06;;;;;;;1999.90;999.90;;;2.00;99.90;;;;;;5028270;28;20038;-79
2023/04/10 04:39:32;;;;;;;1999.90;999.90;;;2.10;99.90;;;;;;5031092;28;20038;-78
2023/04/10 04:41:57;;;;;;;1999.90;999.90;;;2.10;99.90;;;;;;5027991;28;20050;-79
2023/04/10 04:44:23;;;;;;;1999.90;999.90;;;2.00;99.90;;;;;;5025634;28;20162;-79
2023/04/10 04:46:49;;;;;;;1999.90;999.90;;;2.00;99.90;;;;;;5026076;28;20041;-78
2023/04/10 04:49:14;;;;;;;1999.90;999.90;;;2.10;99.90;;;;;;5028133;28;20094;-79
2023/04/10 04:51:40;;;;;;;1999.90;999.90;;;2.10;99.90;;;;;;5027649;28;20033;-79
2023/04/10 04:54:05;;;;;;;1999.90;999.90;;;2.10;99.90;;;;;;5015280;28;20042;-76
2023/04/10 04:56:31;;;;;;;1999.90;999.90;;;2.20;99.90;;;;;;5014923;28;20041;-78
2023/04/10 04:58:56;;;;;;;1999.90;999.90;;;2.20;99.90;;;;;;5014580;28;20030;-78
2023/04/10 05:01:23;;;;;;;1999.90;999.90;;;2.20;99.90;;;;;;5013804;28;20065;-82
2023/04/10 05:03:49;;;;;;;1999.90;999.90;;;2.20;99.90;;;;;;5013992;28;20038;-78
2023/04/10 05:06:15;;;;;;;1999.90;999.90;;;2.20;99.90;;;;;;5013786;28;20029;-76
2023/04/10 05:08:40;;;;;;;1999.90;999.90;;;2.20;99.90;;;;;;5015186;28;20034;-77
2023/04/10 05:11:06;;;;;;;1999.90;999.90;;;2.20;99.90;;;;;;5014113;28;20030;-77
2023/04/10 05:13:31;;;;;;;1999.90;999.90;;;2.30;99.90;;;;;;5015276;28;20436;-77
2023/04/10 05:15:57;;;;;;;1999.90;999.90;;;2.30;99.90;;;;;;5013653;28;20468;-77
2023/04/10 05:18:23;;;;;;;1999.90;999.90;;;2.30;99.90;;;;;;5014476;28;20034;-77
2023/04/10 05:20:48;;;;;;;1999.90;999.90;;;2.40;99.90;;;;;;5016478;28;20041;-77
2023/04/10 05:23:15;;;;;;;1999.90;999.90;;;2.50;99.90;;;;;;5014029;28;20065;-77
2023/04/10 05:25:41;;;;;;;1999.90;999.90;;;2.50;99.90;;;;;;5013485;28;20057;-78
2023/04/10 05:28:06;;;;;;;1999.90;999.90;;;2.50;99.90;;;;;;5014659;28;20042;-78
2023/04/10 05:30:32;;;;;;;1999.90;999.90;;;2.60;99.90;;;;;;5013570;28;20118;-78
2023/04/10 05:32:58;;;;;;;1999.90;999.90;;;2.70;99.90;;;;;;5014857;28;20045;-79
2023/04/10 05:35:23;;;;;;;1999.90;999.90;;;2.80;99.90;;;;;;5014797;28;20041;-78
2023/04/10 05:37:49;;;;;;;1999.90;999.90;;;3.00;99.90;;;;;;5014814;28;20034;-79
2023/04/10 05:40:14;;;;;;;1999.90;999.90;;;3.00;99.90;;;;;;5018701;28;20078;-77
2023/04/10 05:42:40;;;;;;;1999.90;999.90;;;3.10;99.90;;;;;;5009457;28;20494;-77
2023/04/10 05:45:06;;;;;;;1999.90;999.90;;;3.20;99.90;;;;;;5004251;28;20066;-77
2023/04/10 05:47:32;;;;;;;1999.90;999.90;;;3.30;99.90;;;;;;5003122;28;20026;-81
2023/04/10 05:49:57;;;;;;;1999.90;999.90;;;3.40;99.90;;;;;;4994821;28;20035;-77
2023/04/10 05:52:23;;;;;;;1999.90;999.90;;;3.50;99.90;;;;;;4995360;28;20035;-78
2023/04/10 05:54:49;;;;;;;1999.90;999.90;;;3.70;99.90;;;;;;4995337;28;20118;-78
2023/04/10 05:57:15;;;;;;;1999.90;999.90;;;3.80;99.90;;;;;;4996482;28;20034;-81
2023/04/10 05:59:40;;;;;;;1999.90;999.90;;;3.90;99.90;;;;;;4994285;28;20039;-80
2023/04/10 06:02:06;;;;;;;1999.90;999.90;;;4.10;99.90;;;;;;4995259;28;20416;-79
2023/04/10 06:04:31;;;;;;;1999.90;999.90;;;4.20;99.90;;;;;;4995405;28;20039;-79
2023/04/10 06:06:57;;;;;;;1999.90;999.90;;;4.30;99.90;;;;;;4995625;28;20031;-78
2023/04/10 06:09:22;;;;;;;1999.90;999.90;;;4.40;99.90;;;;;;4995091;28;20042;-79
2023/04/10 06:11:48;;;;;;;1999.90;999.90;;;4.50;99.90;;;;;;4996526;28;20063;-77
2023/04/10 06:14:14;;;;;;;1999.90;999.90;;;4.60;99.90;;;;;;4996626;28;20047;-75
2023/04/10 06:16:39;;;;;;;1999.90;999.90;;;4.60;99.90;;;;;;4999178;28;20061;-81
2023/04/10 06:19:05;;;;;;;1999.90;999.90;;;4.60;99.90;;;;;;4999998;28;20042;-77
2023/04/10 06:21:31;;;;;;;1999.90;999.90;;;4.70;99.90;;;;;;4997160;28;20035;-79
2023/04/10 06:23:56;;;;;;;1999.90;999.90;;;4.70;99.90;;;;;;4999012;28;20094;-80
2023/04/10 06:26:23;;;;;;;1999.90;999.90;;;4.70;99.90;;;;;;4999593;28;20070;-80
2023/04/10 06:28:49;;;;;;;1999.90;999.90;;;4.70;99.90;;;;;;5000079;28;20058;-79
2023/04/10 06:31:16;;;;;;;1999.90;999.90;;;4.80;99.90;;;;;;4998000;28;20038;-80
2023/04/10 06:33:42;;;;;;;1999.90;999.90;;;4.80;99.90;;;;;;4998384;28;20043;-80
2023/04/10 06:36:08;;;;;;;1999.90;999.90;;;4.80;99.90;;;;;;4999668;28;20473;-80
2023/04/10 06:38:36;;;;;;;1999.90;999.90;;;4.90;99.90;;;;;;4997759;28;20035;-81
2023/04/10 06:41:03;;;;;;;1999.90;999.90;;;4.90;99.90;;;;;;4998027;28;20060;-80
2023/04/10 06:43:30;;;;;;;1999.90;999.90;;;5.00;99.90;;;;;;4998184;28;20039;-79
2023/04/10 06:45:56;;;;;;;1999.90;999.90;;;5.00;99.90;;;;;;4999777;28;20027;-80
2023/04/10 06:48:21;;;;;;;1999.90;999.90;;;5.10;99.90;;;;;;4998737;28;20034;-83
2023/04/10 06:50:47;;;;;;;1999.90;999.90;;;5.10;99.90;;;;;;5000422;28;20166;-78
2023/04/10 06:53:12;;;;;;;1999.90;999.90;;;5.20;99.90;;;;;;5012491;28;20088;-80
2023/04/10 06:55:38;;;;;;;1999.90;999.90;;;5.30;99.90;;;;;;5017081;28;20121;-78
2023/04/10 06:58:03;;;;;;;1999.90;999.90;;;5.40;99.90;;;;;;5018576;28;20045;-79
2023/04/10 07:00:30;;;;;;;1999.90;999.90;;;5.50;99.90;;;;;;5016652;28;20501;-81
2023/04/10 07:02:55;;;;;;;1999.90;999.90;;;5.50;99.90;;;;;;5019526;28;20031;-80
2023/04/10 07:05:21;;;;;;;1999.90;999.90;;;5.70;99.90;;;;;;5020098;28;20034;-82
2023/04/10 07:07:46;;;;;;;1999.90;999.90;;;5.80;99.90;;;;;;5016435;28;20034;-78
2023/04/10 07:10:12;;;;;;;1999.90;999.90;;;5.90;99.90;;;;;;5017684;28;20034;-80
2023/04/10 07:12:37;;;;;;;1999.90;999.90;;;6.10;99.90;;;;;;5018480;28;20039;-80
2023/04/10 07:15:03;;;;;;;1999.90;999.90;;;6.20;99.90;;;;;;5017625;28;20130;-80
2023/04/10 07:17:29;;;;;;;1999.90;999.90;;;6.40;99.90;;;;;;5019107;28;20038;-80
2023/04/10 07:19:54;;;;;;;1999.90;999.90;;;6.50;99.90;;;;;;5018423;28;20037;-80
2023/04/10 07:22:20;;;;;;;1999.90;999.90;;;6.70;99.90;;;;;;5017704;28;20080;-78
2023/04/10 07:24:45;;;;;;;1999.90;999.90;;;7.20;99.90;;;;;;5019088;28;20443;-79
2023/04/10 07:27:11;;;;;;;1999.90;999.90;;;7.40;99.90;;;;;;5019732;28;20026;-80
2023/04/10 07:29:37;;;;;;;1999.90;999.90;;;7.60;99.90;;;;;;5019437;28;20045;-82
2023/04/10 07:32:03;;;;;;;1999.90;999.90;;;7.90;99.90;;;;;;5016936;28;20030;-76
2023/04/10 07:34:30;;;;;;;1999.90;999.90;;;8.20;99.90;;;;;;5016386;28;20392;-77
2023/04/10 07:36:56;;;;;;;1999.90;999.90;;;8.30;99.90;;;;;;5021361;28;20036;-81
2023/04/10 07:39:21;;;;;;;1999.90;999.90;;;8.50;99.90;;;;;;5022593;28;20125;-78
2023/04/10 07:41:47;;;;;;;1999.90;999.90;;;8.70;99.90;;;;;;5019419;28;20048;-77
2023/04/10 07:44:13;;;;;;;1999.90;999.90;;;8.90;99.90;;;;;;5017916;28;20045;-77
2023/04/10 07:46:39;;;;;;;1999.90;999.90;;;9.20;99.90;;;;;;5017025;28;20042;-77
2023/04/10 07:49:05;;;;;;;1999.90;999.90;;;9.40;99.90;;;;;;5016392;28;20500;-78
2023/04/10 07:51:30;;;;;;;1999.90;999.90;;;9.60;99.90;;;;;;5015807;28;20041;-78
2023/04/10 07:53:56;;;;;;;1999.90;999.90;;;9.90;99.90;;;;;;5015770;28;20046;-79
2023/04/10 07:56:22;;;;;;;1999.90;999.90;;;10.10;99.90;;;;;;5014656;28;20030;-76
2023/04/10 07:58:48;;;;;;;1999.90;999.90;;;10.30;99.90;;;;;;5019898;28;20039;-76
2023/04/10 08:01:14;;;;;;;1999.90;999.90;;;10.60;99.90;;;;;;5014034;28;20034;-76
2023/04/10 08:03:41;;;;;;;1999.90;999.90;;;10.70;99.90;;;;;;5015892;28;20022;-77
2023/04/10 08:06:08;;;;;;;1999.90;999.90;;;10.90;99.90;;;;;;5016741;28;20162;-77
2023/04/10 08:08:35;;;;;;;1999.90;999.90;;;11.20;99.00;;;;;;5019884;28;20030;-77
2023/04/10 08:11:01;;;;;;;1999.90;999.90;;;11.50;98.60;;;;;;5014588;28;20113;-76
2023/04/10 08:13:27;;;;;;;1999.90;999.90;;;11.60;97.90;;;;;;5014302;28;20039;-79
2023/04/10 08:15:53;;;;;;;1999.90;999.90;;;11.80;97.40;;;;;;5015106;28;20077;-73
2023/04/10 08:18:18;;;;;;;1999.90;999.90;;;11.90;96.10;;;;;;5028188;28;20084;-79
2023/04/10 08:20:44;;;;;;;1999.90;999.90;;;12.10;96.70;;;;;;5022077;28;20038;-76
2023/04/10 08:23:09;;;;;;;1999.90;999.90;;;12.30;96.00;;;;;;5016649;28;20116;-78
2023/04/10 08:25:35;;;;;;;1999.90;999.90;;;12.30;95.10;;;;;;5021871;28;20042;-77
2023/04/10 08:28:00;;;;;;;1999.90;999.90;;;12.50;95.00;;;;;;5011817;28;20042;-77
2023/04/10 08:30:26;;;;;;;1999.90;999.90;;;12.50;94.80;;;;;;5010819;28;20030;-73
2023/04/10 08:32:51;;;;;;;1999.90;999.90;;;12.70;94.70;;;;;;5021128;28;20042;-72
2023/04/10 08:35:17;;;;;;;1999.90;999.90;;;12.90;94.50;;;;;;5016686;28;20034;-74
2023/04/10 08:37:42;;;;;;;1999.90;999.90;;;13.00;93.20;;;;;;5021049;28;20041;-75
2023/04/10 08:40:08;;;;;;;1999.90;999.90;;;13.10;93.00;;;;;;5008434;28;20084;-74
2023/04/10 08:42:35;;;;;;;1999.90;999.90;;;13.40;92.80;;;;;;5013459;28;20092;-77
2023/04/10 08:45:00;;;;;;;1999.90;999.90;;;13.50;91.70;;;;;;5013214;28;20109;-81
2023/04/10 08:47:28;;;;;;;1999.90;999.90;;;13.60;91.10;;;;;;5015788;28;20118;-75
2023/04/10 08:49:56;;;;;;;1999.90;999.90;;;13.50;88.50;;;;;;5014530;28;20031;-73
2023/04/10 08:52:24;;;;;;;1999.90;999.90;;;13.60;88.50;;;;;;5010327;28;20034;-74
2023/04/10 08:54:53;;;;;;;1999.90;999.90;;;13.60;89.90;;;;;;4999642;28;20042;-74
2023/04/10 08:57:21;;;;;;;1999.90;999.90;;;13.80;87.70;;;;;;5019368;28;20041;-74
2023/04/10 08:59:47;;;;;;;1999.90;999.90;;;13.90;88.50;;;;;;5012929;28;20042;-73
2023/04/10 09:02:12;;;;;;;1999.90;999.90;;;14.00;87.70;;;;;;5008084;28;20043;-74
2023/04/10 09:04:38;;;;;;;1999.90;999.90;;;14.00;86.70;;;;;;5013279;28;20042;-74
2023/04/10 09:07:04;;;;;;;1999.90;999.90;;;14.00;86.70;;;;;;5013323;28;20504;-75
2023/04/10 09:09:33;;;;;;;1999.90;999.90;;;14.10;86.30;;;;;;5013845;28;20034;-75
2023/04/10 09:12:00;;;;;;;1999.90;999.90;;;14.30;86.20;;;;;;5007230;28;20054;-75
2023/04/10 09:14:35;;;;;;;1999.90;999.90;;;14.40;84.90;;;;;;5014380;28;20040;-75
2023/04/10 09:17:37;;;;;;;1999.90;999.90;;;14.40;82.30;;;;;;5006823;28;20039;-75
2023/04/10 09:20:20;;;;;;;1999.90;999.90;;;14.50;82.70;;;;;;4981050;28;20827;-74
2023/04/10 09:22:46;;;;;;;1999.90;999.90;;;14.70;81.40;;;;;;5010985;28;20055;-80
2023/04/10 09:25:32;;;;;;;1999.90;999.90;;;14.80;82.20;;;;;;5014497;28;20412;-78
2023/04/10 09:28:06;;;;;;;1999.90;999.90;;;14.90;80.30;;;;;;5015125;28;20034;-77
2023/04/10 09:30:39;;;;;;;1999.90;999.90;;;15.20;79.60;;;;;;5013147;28;20039;-76
2023/04/10 09:33:26;;;;;;;1999.90;999.90;;;15.30;78.50;;;;;;5016365;28;20406;-77
2023/04/10 09:35:53;;;;;;;1999.90;999.90;;;15.40;78.60;;;;;;5012758;28;20794;-75
2023/04/10 09:38:20;;;;;;;1999.90;999.90;;;15.50;79.50;;;;;;5012577;28;20030;-74
2023/04/10 09:40:47;;;;;;;1999.90;999.90;;;15.60;77.80;;;;;;5021625;28;20038;-75
2023/04/10 09:43:26;;;;;;;1999.90;999.90;;;15.50;75.00;;;;;;5023372;28;20033;-73
2023/04/10 09:45:56;;;;;;;1999.90;999.90;;;15.60;71.30;;;;;;5026631;28;20056;-75
2023/04/10 09:48:22;;;;;;;1999.90;999.90;;;15.60;70.20;;;;;;5015012;28;20039;-75
2023/04/10 09:50:48;;;;;;;1999.90;999.90;;;15.60;70.60;;;;;;5020426;28;20432;-75
2023/04/10 09:53:16;;;;;;;1999.90;999.90;;;15.80;73.60;;;;;;5003997;28;20045;-74
2023/04/10 09:55:42;;;;;;;1999.90;999.90;;;16.00;72.60;;;;;;5013542;28;20034;-75
2023/04/10 09:58:09;;;;;;;1999.90;999.90;;;16.20;75.00;;;;;;4998676;28;20035;-73
2023/04/10 10:00:42;;;;;;;1999.90;999.90;;;16.30;72.50;;;;;;5025310;28;20137;-77
2023/04/10 10:03:13;;;;;;;1999.90;999.90;;;16.40;72.00;;;;;;5004907;28;20472;-73
2023/04/10 10:05:41;;;;;;;1999.90;999.90;;;16.60;70.80;;;;;;5014577;28;20129;-71
2023/04/10 10:08:11;;;;;;;1999.90;999.90;;;16.70;73.70;;;;;;5006704;28;20737;-77
2023/04/10 10:10:44;;;;;;;1999.90;999.90;;;16.90;68.90;;;;;;4999794;28;20118;-75
2023/04/10 10:13:16;;;;;;;1999.90;999.90;;;17.10;65.10;;;;;;5002210;28;20035;-76
2023/04/10 10:15:50;;;;;;;1999.90;999.90;;;17.30;66.90;;;;;;4989200;28;20046;-76
2023/04/10 10:18:36;;;;;;;1999.90;999.90;;;17.40;64.90;;;;;;4997454;28;20490;-75
2023/04/10 10:21:03;;;;;;;1999.90;999.90;;;17.50;62.80;;;;;;4996768;28;20141;-78
2023/04/10 10:23:32;;;;;;;1999.90;999.90;;;17.40;61.40;;;;;;4997044;28;20595;-72
2023/04/10 10:26:00;;;;;;;1999.90;999.90;;;17.50;63.90;;;;;;4999462;28;20035;-76
2023/04/10 10:28:30;;;;;;;1999.90;999.90;;;17.70;62.90;;;;;;5000775;28;20034;-77
2023/04/10 10:30:56;;;;;;;1999.90;999.90;;;17.80;62.10;;;;;;5000234;28;20026;-77
2023/04/10 10:33:23;;;;;;;1999.90;999.90;;;17.90;60.80;;;;;;5010327;28;20022;-77
2023/04/10 10:35:50;;;;;;;1999.90;999.90;;;18.20;63.20;;;;;;5006607;28;20437;-78
2023/04/10 10:38:17;;;;;;;1999.90;999.90;;;18.40;63.70;;;;;;4987650;28;20050;-75
2023/04/10 10:40:46;;;;;;;1999.90;999.90;;;18.50;59.40;;;;;;4998546;28;20035;-77
2023/04/10 10:43:23;;;;;;;1999.90;999.90;;;18.40;61.30;;;;;;4995235;28;20030;-77
2023/04/10 10:45:58;;;;;;;1999.90;999.90;;;18.60;58.50;;;;;;5001138;28;20030;-76
2023/04/10 10:48:23;;;;;;;1999.90;999.90;;;18.90;57.40;;;;;;5001611;28;20113;-78
2023/04/10 10:50:56;;;;;;;1999.90;999.90;;;18.80;57.50;;;;;;5019402;28;20035;-80
2023/04/10 10:53:38;;;;;;;1999.90;999.90;;;18.70;57.50;;;;;;5001262;28;20078;-82
2023/04/10 10:56:22;;;;;;;1999.90;999.90;;;18.70;56.00;;;;;;4997399;28;20035;-75
2023/04/10 10:58:49;;;;;;;1999.90;999.90;;;18.90;58.70;;;;;;5008166;28;20520;-79
2023/04/10 11:01:15;;;;;;;1999.90;999.90;;;18.90;56.30;;;;;;5005425;28;20059;-76
2023/04/10 11:03:43;;;;;;;1999.90;999.90;;;18.80;56.30;;;;;;4998352;28;20062;-77
2023/04/10 11:06:11;;;;;;;1999.90;999.90;;;18.60;57.90;;;;;;5007104;28;20042;-77
2023/04/10 11:08:55;;;;;;;1999.90;999.90;;;18.60;56.60;;;;;;4977752;28;20066;-76
2023/04/10 11:11:26;;;;;;;1999.90;999.90;;;18.90;57.60;;;;;;4977443;28;20131;-76
2023/04/10 11:13:51;;;;;;;1999.90;999.90;;;18.90;57.20;;;;;;4976956;28;20099;-76
2023/04/10 11:16:18;;;;;;;1999.90;999.90;;;18.70;57.20;;;;;;4976058;28;20027;-77
2023/04/10 11:18:49;;;;;;;1999.90;999.90;;;18.40;55.60;;;;;;4977198;28;20039;-76
2023/04/10 11:21:17;;;;;;;1999.90;999.90;;;18.60;58.00;;;;;;4977089;28;20098;-77
2023/04/10 11:23:49;;;;;;;1999.90;999.90;;;18.60;54.60;;;;;;4977356;28;20082;-76
2023/04/10 11:26:39;;;;;;;1999.90;999.90;;;18.90;57.20;;;;;;4976024;28;20069;-76
2023/04/10 11:29:16;;;;;;;1999.90;999.90;;;19.10;56.70;;;;;;4975667;28;20035;-76
2023/04/10 11:31:53;;;;;;;1999.90;999.90;;;19.00;55.60;;;;;;4977055;28;20042;-77
2023/04/10 11:34:19;;;;;;;1999.90;999.90;;;19.10;56.80;;;;;;4977024;28;20035;-76
2023/04/10 11:36:45;;;;;;;1999.90;999.90;;;19.10;55.80;;;;;;4977049;28;20039;-76
2023/04/10 11:39:13;;;;;;;1999.90;999.90;;;19.00;55.10;;;;;;4975584;28;20079;-76
2023/04/10 11:41:43;;;;;;;1999.90;999.90;;;19.20;55.60;;;;;;4976577;28;20028;-77
2023/04/10 11:44:10;;;;;;;1999.90;999.90;;;19.50;55.90;;;;;;4976495;28;20043;-76
2023/04/10 11:46:40;;;;;;;1999.90;999.90;;;19.60;55.60;;;;;;4976948;28;20054;-76
2023/04/10 11:49:09;;;;;;;1999.90;999.90;;;19.70;55.80;;;;;;4976954;28;20031;-77
2023/04/10 11:51:38;;;;;;;1999.90;999.90;;;19.40;53.20;;;;;;4976633;28;20067;-76
2023/04/10 11:54:08;;;;;;;1999.90;999.90;;;19.30;54.30;;;;;;4974958;28;20094;-76
2023/04/10 11:56:34;;;;;;;1999.90;999.90;;;19.40;52.20;;;;;;4976407;28;20031;-76
2023/04/10 11:59:18;;;;;;;1999.90;999.90;;;19.70;53.60;;;;;;4976894;28;20035;-76
2023/04/10 12:01:45;;;;;;;1999.90;999.90;;;20.00;53.20;;;;;;4974963;28;20027;-76
2023/04/10 12:04:18;;;;;;;1999.90;999.90;;;20.40;52.00;;;;;;4976303;28;20117;-76
2023/04/10 12:06:52;;;;;;;1999.90;999.90;;;20.30;49.90;;;;;;4976708;28;20058;-77
2023/04/10 12:09:19;;;;;;;1999.90;999.90;;;20.40;52.40;;;;;;4975330;28;20027;-77